createdAt,value
2018-11-13T01:35:35.589Z,53.87
2018-11-13T01:38:20.528Z,62.35
2018-11-13T01:40:59.775Z,54.15
2018-11-13T01:44:03.256Z,54.10
2018-11-13T04:47:34.587Z,104.87
2018-11-13T04:50:12.859Z,98.03
2018-11-13T04:52:43.376Z,99.40
2018-11-13T04:55:19.290Z,98.10
2018-11-13T04:57:51.827Z,109.52
2018-11-13T05:00:24.737Z,103.07
2018-11-13T05:02:59.799Z,96.78
2018-11-13T05:05:48.849Z,100.12
2018-11-13T05:08:23.537Z,94.52
2018-11-13T05:11:00.219Z,95.95
2018-11-13T05:13:39.234Z,86.55
2018-11-13T05:16:08.162Z,88.52
2018-11-13T05:18:48.224Z,87.15
2018-11-13T05:21:19.652Z,103.38
2018-11-13T05:23:49.096Z,94.17
2018-11-13T05:26:21.099Z,89.65
2018-11-13T05:28:49.716Z,90.62
2018-11-13T05:31:18.534Z,110.22
2018-11-13T05:33:47.272Z,104.03
2018-11-13T05:36:22.155Z,107.27
2018-11-13T05:39:29.627Z,105.37
2018-11-13T06:16:49.396Z,84.95
2018-11-13T06:19:19.442Z,92.42
2018-11-13T06:24:25.468Z,88.15
2018-11-13T06:27:07.433Z,94.30
2018-11-13T06:29:46.773Z,101.18
2018-11-13T06:33:07.569Z,92.90
2018-11-13T07:10:22.487Z,59.95
2018-11-13T07:12:51.492Z,58.52
2018-11-13T07:15:22.152Z,51.92
2018-11-13T07:17:51.760Z,48.23
2018-11-13T07:23:34.680Z,52.00
2018-11-13T07:26:08.292Z,46.98
2018-11-13T07:28:47.931Z,50.17
2018-11-13T07:46:54.405Z,49.93
2018-11-13T07:49:23.082Z,57.62
2018-11-13T07:51:51.286Z,62.38
2018-11-13T07:54:20.889Z,54.53
2018-11-13T07:56:51.589Z,62.00
2018-11-13T07:59:20.877Z,56.33
2018-11-13T08:01:50.490Z,60.92
2018-11-13T08:04:20.122Z,56.75
2018-11-13T08:06:48.674Z,54.85
2018-11-13T08:09:17.935Z,51.13
2018-11-13T08:11:50.911Z,50.78
2018-11-13T08:14:23.180Z,49.53
2018-11-13T08:16:52.061Z,45.60
2018-11-13T08:19:20.848Z,51.35
2018-11-13T08:21:50.376Z,38.88
2018-11-13T08:24:18.770Z,39.35
2018-11-13T08:26:48.239Z,40.38
2018-11-13T08:29:18.918Z,37.65
2018-11-13T08:31:57.484Z,44.25
2018-11-13T08:34:27.235Z,36.20
2018-11-13T08:36:55.737Z,38.48
2018-11-13T08:39:26.806Z,40.45
2018-11-13T08:41:55.911Z,34.08
2018-11-13T08:44:31.428Z,36.08
2018-11-13T08:47:02.187Z,29.82
2018-11-13T08:49:31.056Z,35.40
2018-11-13T08:52:01.241Z,35.80
2018-11-13T08:54:30.226Z,32.85
2018-11-13T08:56:58.548Z,42.83
2018-11-13T08:59:29.147Z,38.10
2018-11-13T09:02:16.405Z,33.83
2018-11-13T09:04:49.070Z,32.17
2018-11-13T09:07:17.765Z,40.85
2018-11-13T09:09:46.552Z,35.55
2018-11-13T09:12:15.048Z,33.25
2018-11-13T09:14:44.013Z,28.23
2018-11-13T09:17:13.266Z,29.77
2018-11-13T09:19:41.852Z,22.27
2018-11-13T09:22:10.258Z,25.85
2018-11-13T09:24:38.547Z,27.55
2018-11-13T09:27:06.764Z,23.32
2018-11-13T09:29:35.420Z,23.87
2018-11-13T09:32:03.969Z,25.82
2018-11-13T09:34:33.112Z,31.50
2018-11-13T09:37:01.753Z,31.85
2018-11-13T09:39:30.332Z,29.37
2018-11-13T09:41:58.769Z,31.40
2018-11-13T09:44:27.235Z,31.25
2018-11-13T09:46:58.599Z,27.87
2018-11-13T09:49:27.110Z,31.50
2018-11-13T09:51:55.591Z,32.85
2018-11-13T09:54:24.199Z,31.12
2018-11-13T09:56:52.446Z,36.58
2018-11-13T09:59:23.962Z,30.15
2018-11-13T10:01:53.030Z,35.38
2018-11-13T10:04:21.597Z,32.60
2018-11-13T10:06:49.274Z,31.20
2018-11-13T10:09:17.590Z,29.63
2018-11-13T10:11:46.019Z,36.05
2018-11-13T10:14:14.425Z,31.90
2018-11-13T10:16:42.693Z,33.23
2018-11-13T10:19:11.462Z,36.98
2018-11-13T10:21:39.729Z,31.55
2018-11-13T10:24:09.569Z,34.25
2018-11-13T10:26:37.839Z,38.28
2018-11-13T10:29:06.343Z,35.25
2018-11-13T10:55:41.845Z,32.23
2018-11-13T10:58:10.134Z,38.00
2018-11-13T11:00:43.824Z,36.38
2018-11-13T11:03:17.823Z,37.88
2018-11-13T11:05:47.362Z,43.28
2018-11-13T11:08:16.039Z,40.00
2018-11-13T11:10:44.424Z,32.85
2018-11-13T11:13:13.144Z,38.40
2018-11-13T11:15:41.382Z,30.97
2018-11-13T11:18:09.728Z,34.63
2018-11-13T11:20:38.170Z,30.70
2018-11-13T11:23:06.593Z,37.28
2018-11-13T11:25:34.954Z,31.45
2018-11-13T11:28:03.447Z,28.00
2018-11-13T11:30:31.718Z,30.62
2018-11-13T11:33:01.048Z,27.93
2018-11-13T11:35:29.406Z,27.70
2018-11-13T11:37:57.721Z,26.40
2018-11-13T11:40:26.883Z,30.48
2018-11-13T11:42:55.259Z,28.85
2018-11-13T11:45:23.804Z,29.30
2018-11-13T11:47:52.124Z,30.15
2018-11-13T11:50:20.424Z,24.77
2018-11-13T11:52:48.794Z,20.52
2018-11-13T11:55:17.008Z,22.17
2018-11-13T11:57:45.268Z,20.35
2018-11-13T12:00:15.695Z,26.27
2018-11-13T12:02:43.953Z,22.35
2018-11-13T12:05:12.234Z,23.47
2018-11-13T12:07:40.494Z,23.27
2018-11-13T12:10:10.430Z,18.87
2018-11-13T12:12:38.718Z,18.67
2018-11-13T12:15:08.202Z,19.25
2018-11-13T12:17:36.512Z,18.87
2018-11-13T12:20:05.281Z,18.07
2018-11-13T12:22:33.611Z,23.70
2018-11-13T12:25:02.498Z,19.92
2018-11-13T12:27:30.903Z,19.55
2018-11-13T12:29:59.616Z,17.15
2018-11-13T12:32:28.141Z,23.77
2018-11-13T12:34:58.177Z,20.48
2018-11-13T12:37:26.633Z,18.20
2018-11-13T12:39:57.712Z,18.50
2018-11-13T12:42:26.163Z,16.60
2018-11-13T12:44:55.235Z,15.38
2018-11-13T12:47:24.127Z,16.27
2018-11-13T12:49:52.790Z,15.32
2018-11-13T12:52:21.986Z,12.95
2018-11-13T12:54:51.421Z,17.07
2018-11-13T12:57:19.882Z,12.25
2018-11-13T12:59:48.316Z,13.85
2018-11-13T13:02:16.738Z,12.13
2018-11-13T13:04:52.374Z,12.98
2018-11-13T13:07:23.811Z,13.30
2018-11-13T13:09:52.320Z,17.52
2018-11-13T13:12:20.556Z,13.83
2018-11-13T13:14:49.986Z,12.50
2018-11-13T13:17:18.141Z,13.95
2018-11-13T13:19:46.378Z,18.67
2018-11-13T13:22:14.729Z,16.87
2018-11-13T13:24:51.925Z,13.80
2018-11-13T13:27:21.895Z,16.48
2018-11-13T13:29:50.839Z,18.23
2018-11-13T13:32:19.179Z,14.43
2018-11-13T13:34:47.350Z,14.75
2018-11-13T13:37:15.600Z,12.93
2018-11-13T13:39:43.851Z,13.08
2018-11-13T13:42:12.098Z,27.07
2018-11-13T13:44:40.849Z,13.65
2018-11-13T13:47:09.096Z,6.90
2018-11-13T13:49:38.082Z,7.60
2018-11-13T13:52:06.490Z,7.97
2018-11-13T13:54:44.771Z,6.42
2018-11-13T14:03:30.268Z,7.53
2018-11-13T14:05:59.099Z,6.28
2018-11-13T14:08:27.468Z,12.25
2018-11-13T14:11:26.249Z,15.23
2018-11-13T14:13:54.770Z,23.80
2018-11-13T14:16:23.005Z,25.25
2018-11-13T14:18:53.617Z,29.02
2018-11-13T14:21:22.103Z,32.48
2018-11-13T14:23:52.758Z,28.98
2018-11-13T14:26:21.326Z,38.55
2018-11-13T14:28:52.848Z,32.23
2018-11-13T14:31:23.367Z,31.48
2018-11-13T14:33:52.179Z,29.95
2018-11-13T14:36:21.334Z,37.78
2018-11-13T14:38:50.173Z,30.68
2018-11-13T14:41:22.778Z,34.30
2018-11-13T14:43:51.258Z,24.50
2018-11-13T14:46:20.366Z,29.07
2018-11-13T14:48:49.291Z,30.40
2018-11-13T14:51:18.236Z,29.23
2018-11-13T14:53:47.054Z,34.35
2018-11-13T14:56:16.034Z,28.95
2018-11-13T14:58:46.241Z,30.92
2018-11-13T15:01:15.193Z,32.25
2018-11-13T15:03:45.401Z,27.20
2018-11-13T15:06:14.342Z,43.40
2018-11-13T15:08:43.317Z,30.65
2018-11-13T15:11:12.598Z,33.33
2018-11-13T15:13:43.129Z,32.35
2018-11-13T15:16:12.207Z,29.35
2018-11-13T15:18:42.274Z,31.48
2018-11-13T15:21:13.447Z,32.83
2018-11-13T15:23:41.988Z,31.00
2018-11-13T15:26:14.357Z,36.90
2018-11-13T15:28:45.113Z,37.38
2018-11-13T15:31:14.755Z,38.25
2018-11-13T15:33:44.861Z,37.05
2018-11-13T15:36:13.458Z,30.60
2018-11-13T15:38:44.207Z,28.67
2018-11-13T15:41:14.192Z,26.05
2018-11-13T15:43:47.338Z,33.60
2018-11-13T15:46:35.078Z,31.00
2018-11-13T15:49:03.970Z,28.50
2018-11-13T15:51:36.017Z,26.40
2018-11-13T15:54:05.502Z,32.50
2018-11-13T15:56:35.404Z,25.82
2018-11-13T15:59:05.759Z,28.52
2018-11-13T16:01:35.709Z,28.10
2018-11-13T16:04:05.930Z,30.77
2018-11-13T16:06:34.739Z,27.52
2018-11-13T16:09:05.913Z,31.85
2018-11-13T16:11:34.465Z,24.52
2018-11-13T16:14:07.641Z,23.20
2018-11-13T16:16:36.213Z,26.55
2018-11-13T16:19:05.051Z,28.32
2018-11-13T16:21:34.336Z,24.82
2018-11-13T16:24:04.956Z,23.47
2018-11-13T16:26:35.652Z,22.02
2018-11-13T16:29:06.118Z,21.90
2018-11-13T16:31:35.116Z,23.45
2018-11-13T16:34:05.845Z,26.87
2018-11-13T16:36:35.301Z,19.10
2018-11-13T16:39:13.375Z,20.88
2018-11-13T16:41:44.321Z,19.67
2018-11-13T16:44:12.873Z,18.52
2018-11-13T16:46:45.003Z,17.60
2018-11-13T16:49:15.219Z,19.92
2018-11-13T16:51:44.567Z,16.30
2018-11-13T16:56:56.934Z,14.38
2018-11-13T16:59:25.307Z,16.82
2018-11-13T17:01:53.718Z,17.37
2018-11-13T17:04:23.117Z,15.50
2018-11-13T17:06:51.721Z,14.07
2018-11-13T17:09:21.223Z,15.38
2018-11-13T17:11:54.374Z,14.35
2018-11-13T17:14:23.595Z,9.50
2018-11-13T17:16:52.685Z,12.65
2018-11-13T17:19:23.586Z,12.47
2018-11-13T17:21:52.496Z,9.40
2018-11-13T17:24:22.105Z,12.53
2018-11-13T17:26:52.107Z,8.28
2018-11-13T17:29:21.788Z,13.25
2018-11-13T17:31:50.351Z,13.10
2018-11-13T17:34:18.773Z,9.50
2018-11-13T17:36:47.484Z,9.08
2018-11-13T17:39:15.784Z,9.83
2018-11-13T17:41:44.935Z,12.18
2018-11-13T17:44:14.482Z,11.22
2018-11-13T17:46:42.785Z,8.40
2018-11-13T17:49:11.205Z,7.90
2018-11-13T17:51:39.543Z,9.63
2018-11-13T17:54:07.960Z,8.98
2018-11-13T17:56:36.174Z,14.35
2018-11-13T17:59:04.416Z,12.07
2018-11-13T18:01:32.829Z,10.08
2018-11-13T18:04:01.115Z,11.95
2018-11-13T18:06:29.500Z,17.02
2018-11-13T18:08:59.911Z,9.73
2018-11-13T18:11:28.285Z,11.65
2018-11-13T18:13:56.599Z,9.78
2018-11-13T18:16:25.048Z,12.15
2018-11-13T18:18:54.041Z,13.45
2018-11-13T18:21:23.264Z,16.90
2018-11-13T18:23:51.963Z,9.45
2018-11-13T18:26:20.250Z,9.98
2018-11-13T18:28:49.307Z,9.00
2018-11-13T18:31:26.441Z,10.00
2018-11-13T18:33:58.312Z,11.33
2018-11-13T18:36:27.725Z,11.88
2018-11-13T18:38:57.351Z,10.58
2018-11-13T18:41:30.146Z,5.95
2018-11-13T18:46:52.751Z,8.08
2018-11-13T18:49:21.796Z,6.97
2018-11-13T18:52:00.644Z,7.85
2018-11-13T18:54:33.511Z,11.93
2018-11-13T18:57:03.543Z,7.70
2018-11-13T18:59:39.239Z,13.65
2018-11-13T19:02:13.496Z,10.48
2018-11-13T19:04:52.541Z,7.87
2018-11-13T19:07:33.367Z,11.80
2018-11-13T19:10:19.261Z,10.18
2018-11-13T19:12:49.255Z,8.65
2018-11-13T19:15:20.085Z,15.63
2018-11-13T19:17:49.735Z,8.28
2018-11-13T19:20:22.575Z,7.35
2018-11-13T19:22:56.427Z,10.60
2018-11-13T19:25:27.434Z,10.40
2018-11-13T19:27:57.307Z,11.88
2018-11-13T19:30:26.378Z,6.08
2018-11-13T19:32:55.817Z,12.20
2018-11-13T19:38:19.776Z,8.33
2018-11-13T19:40:53.242Z,8.88
2018-11-13T19:43:24.949Z,9.45
2018-11-13T19:45:55.342Z,9.05
2018-11-13T19:48:27.145Z,9.35
2018-11-13T19:50:57.311Z,9.75
2018-11-13T19:53:32.679Z,13.85
2018-11-13T20:05:15.200Z,10.18
2018-11-13T20:07:47.418Z,11.93
2018-11-13T20:12:46.298Z,15.28
2018-11-13T20:15:18.942Z,13.30
2018-11-13T20:17:50.101Z,10.43
2018-11-13T20:20:27.701Z,22.25
2018-11-13T20:25:53.241Z,10.50
2018-11-13T20:28:25.311Z,8.25
2018-11-13T20:31:44.459Z,10.58
2018-11-13T20:34:15.129Z,10.30
2018-11-13T20:36:44.635Z,12.05
2018-11-13T20:39:15.615Z,13.70
2018-11-13T20:41:44.345Z,6.70
2018-11-13T20:44:14.429Z,13.98
2018-11-13T20:46:46.377Z,13.83
2018-11-13T20:49:15.986Z,9.05
2018-11-13T20:51:48.937Z,11.48
2018-11-13T20:54:17.708Z,14.28
2018-11-13T20:56:46.293Z,16.10
2018-11-13T20:59:15.056Z,16.37
2018-11-13T21:01:43.591Z,11.43
2018-11-13T21:04:12.175Z,11.12
2018-11-13T21:06:41.058Z,11.68
2018-11-13T21:09:09.870Z,12.05
2018-11-13T21:11:39.296Z,19.35
2018-11-13T21:14:07.906Z,10.38
2018-11-13T21:16:36.525Z,11.78
2018-11-13T21:19:05.169Z,13.95
2018-11-13T21:21:33.474Z,9.63
2018-11-13T21:24:02.477Z,9.95
2018-11-13T21:26:31.512Z,11.78
2018-11-13T21:29:00.066Z,11.22
2018-11-13T21:31:29.054Z,10.63
2018-11-13T21:33:57.929Z,15.65
2018-11-13T21:36:31.827Z,11.70
2018-11-13T21:39:00.873Z,12.30
2018-11-13T21:44:16.905Z,14.18
2018-11-13T21:46:47.846Z,17.50
2018-11-13T21:49:16.597Z,10.85
2018-11-13T21:51:45.941Z,12.43
2018-11-13T21:54:14.576Z,13.43
2018-11-13T21:56:43.797Z,13.93
2018-11-13T22:01:57.371Z,18.07
2018-11-13T22:04:26.396Z,17.67
2018-11-13T22:07:00.696Z,11.05
2018-11-13T22:09:29.136Z,15.00
2018-11-13T22:11:57.916Z,33.45
2018-11-13T22:14:26.988Z,17.20
2018-11-13T22:16:56.383Z,11.97
2018-11-13T22:19:25.203Z,14.40
2018-11-13T22:21:53.864Z,11.40
2018-11-13T22:24:22.463Z,10.03
2018-11-13T22:26:51.052Z,12.05
2018-11-13T22:29:20.328Z,15.53
2018-11-13T22:31:49.334Z,14.75
2018-11-13T22:34:17.948Z,13.35
2018-11-13T22:36:46.825Z,13.50
2018-11-13T22:39:16.206Z,16.50
2018-11-13T22:41:44.887Z,36.50
2018-11-13T22:44:19.668Z,22.02
2018-11-13T22:46:48.340Z,16.17
2018-11-13T22:49:17.056Z,12.30
2018-11-13T22:51:45.903Z,16.30
2018-11-13T22:54:14.449Z,15.28
2018-11-13T22:56:44.111Z,21.00
2018-11-13T22:59:12.639Z,20.17
2018-11-13T23:01:42.003Z,16.32
2018-11-13T23:04:12.301Z,15.68
2018-11-13T23:06:40.842Z,22.35
2018-11-13T23:09:11.796Z,24.80
2018-11-13T23:11:40.202Z,14.80
2018-11-13T23:14:08.924Z,23.38
2018-11-13T23:16:37.565Z,20.43
2018-11-13T23:19:06.500Z,18.87
2018-11-13T23:21:35.670Z,20.08
2018-11-13T23:24:04.441Z,17.70
2018-11-13T23:26:33.030Z,17.85
2018-11-13T23:29:01.700Z,22.95
2018-11-13T23:31:33.814Z,23.98
2018-11-13T23:34:03.167Z,21.40
2018-11-13T23:36:34.206Z,16.45
2018-11-13T23:39:03.288Z,22.10
2018-11-13T23:45:04.701Z,20.17
2018-11-13T23:47:56.084Z,18.67
2018-11-13T23:50:27.223Z,12.73
2018-11-13T23:52:55.835Z,20.65
2018-11-13T23:55:32.170Z,21.60
2018-11-13T23:58:01.175Z,21.97
